createdAt,value
2022-09-26T00:01:37.854Z,2.05
2022-09-26T00:04:09.228Z,2.40
2022-09-26T00:06:37.642Z,2.17
2022-09-26T00:09:05.816Z,2.13
2022-09-26T00:11:35.565Z,2.20
2022-09-26T00:14:07.115Z,2.10
2022-09-26T00:16:35.378Z,2.05
2022-09-26T00:19:04.007Z,1.90
2022-09-26T00:21:32.686Z,2.00
2022-09-26T00:24:01.973Z,2.22
2022-09-26T00:26:32.250Z,2.33
2022-09-26T00:29:04.493Z,1.95
2022-09-26T00:31:35.987Z,2.00
2022-09-26T00:34:04.713Z,2.10
2022-09-26T00:36:38.427Z,2.15
2022-09-26T00:39:08.942Z,2.20
2022-09-26T00:41:38.195Z,2.08
2022-09-26T00:44:35.716Z,2.08
2022-09-26T00:47:06.559Z,1.88
2022-09-26T00:49:37.225Z,1.75
2022-09-26T00:52:10.495Z,1.70
2022-09-26T00:54:44.457Z,1.90
2022-09-26T00:57:16.480Z,1.90
2022-09-26T00:59:48.392Z,1.65
2022-09-26T01:02:18.381Z,1.80
2022-09-26T01:04:48.199Z,2.00
2022-09-26T01:07:20.591Z,1.83
2022-09-26T01:09:49.830Z,2.42
2022-09-26T01:12:19.395Z,2.30
2022-09-26T01:14:48.791Z,2.78
2022-09-26T01:17:18.487Z,2.72
2022-09-26T01:19:57.534Z,3.03
2022-09-26T01:22:56.746Z,2.88
2022-09-26T01:25:35.325Z,3.10
2022-09-26T01:28:19.696Z,3.70
2022-09-26T01:30:58.573Z,3.25
2022-09-26T01:33:42.794Z,3.25
2022-09-26T01:36:34.440Z,3.20
2022-09-26T01:39:14.707Z,3.55
2022-09-26T01:41:51.357Z,3.38
2022-09-26T01:44:30.975Z,3.17
2022-09-26T01:47:08.147Z,3.40
2022-09-26T01:49:44.282Z,3.38
2022-09-26T01:52:19.935Z,3.53
2022-09-26T01:54:54.387Z,3.47
2022-09-26T01:57:30.505Z,2.83
2022-09-26T02:00:03.359Z,3.13
2022-09-26T02:02:38.802Z,3.50
2022-09-26T02:05:13.271Z,3.70
2022-09-26T02:07:46.591Z,2.90
2022-09-26T02:10:19.816Z,3.35
2022-09-26T02:12:54.998Z,3.00
2022-09-26T02:15:26.603Z,3.10
2022-09-26T02:18:03.126Z,2.80
2022-09-26T02:20:33.243Z,3.10
2022-09-26T02:23:04.135Z,3.17
2022-09-26T02:25:32.542Z,3.00
2022-09-26T02:28:00.551Z,3.30
2022-09-26T02:30:28.657Z,2.60
2022-09-26T02:32:58.375Z,2.75
2022-09-26T02:35:44.179Z,2.60
2022-09-26T02:38:12.981Z,2.47
2022-09-26T02:40:57.227Z,2.50
2022-09-26T02:43:44.885Z,2.92
2022-09-26T02:46:40.852Z,2.50
2022-09-26T02:49:30.399Z,2.70
2022-09-26T02:52:14.319Z,2.50
2022-09-26T02:54:49.916Z,2.53
2022-09-26T02:57:34.411Z,3.20
2022-09-26T03:00:07.858Z,2.80
2022-09-26T03:02:42.011Z,2.60
2022-09-26T03:05:21.830Z,2.97
2022-09-26T03:07:57.526Z,3.40
2022-09-26T03:10:28.715Z,2.85
2022-09-26T03:13:02.638Z,2.90
2022-09-26T03:15:30.890Z,3.47
2022-09-26T03:18:00.362Z,3.50
2022-09-26T03:20:30.458Z,3.63
2022-09-26T03:22:58.578Z,3.70
2022-09-26T03:25:28.946Z,3.70
2022-09-26T03:28:08.083Z,3.83
2022-09-26T03:30:36.350Z,3.60
2022-09-26T03:33:34.300Z,3.58
2022-09-26T03:36:07.483Z,3.75
2022-09-26T03:38:35.567Z,4.05
2022-09-26T03:41:17.483Z,3.60
2022-09-26T03:44:06.892Z,3.90
2022-09-26T03:46:55.215Z,4.50
2022-09-26T03:49:23.259Z,3.97
2022-09-26T03:51:52.789Z,3.65
2022-09-26T03:54:20.801Z,4.18
2022-09-26T03:56:50.004Z,4.35
2022-09-26T03:59:18.329Z,4.07
2022-09-26T04:01:48.611Z,4.38
2022-09-26T04:04:16.702Z,4.10
2022-09-26T04:06:46.059Z,4.10
2022-09-26T04:09:17.644Z,4.47
2022-09-26T04:11:52.512Z,4.30
2022-09-26T04:14:22.025Z,4.45
2022-09-26T04:16:55.787Z,4.70
2022-09-26T04:19:28.440Z,4.60
2022-09-26T04:21:56.974Z,5.03
2022-09-26T04:24:26.798Z,4.97
2022-09-26T04:26:55.123Z,4.95
2022-09-26T04:29:23.308Z,5.50
2022-09-26T04:32:15.846Z,5.25
2022-09-26T04:35:03.850Z,5.30
2022-09-26T04:37:31.979Z,5.55
2022-09-26T04:40:01.533Z,5.53
2022-09-26T04:42:29.814Z,5.50
2022-09-26T04:44:57.819Z,5.55
2022-09-26T04:47:25.905Z,5.80
2022-09-26T04:50:26.263Z,6.20
2022-09-26T04:53:06.584Z,6.70
2022-09-26T04:55:40.586Z,6.30
2022-09-26T04:58:08.619Z,6.40
2022-09-26T05:00:37.410Z,6.03
2022-09-26T05:03:07.415Z,5.97
2022-09-26T05:05:36.285Z,6.60
2022-09-26T05:08:05.322Z,6.60
2022-09-26T05:10:33.434Z,7.60
2022-09-26T05:13:06.074Z,7.15
2022-09-26T05:15:39.096Z,6.85
2022-09-26T05:18:11.394Z,7.75
2022-09-26T05:20:40.042Z,6.82
2022-09-26T05:23:09.119Z,7.63
2022-09-26T05:25:57.461Z,7.07
2022-09-26T05:28:28.370Z,8.25
2022-09-26T05:30:57.008Z,7.82
2022-09-26T05:33:25.097Z,7.13
2022-09-26T05:35:54.799Z,7.47
2022-09-26T05:38:23.440Z,7.90
2022-09-26T05:40:59.339Z,8.02
2022-09-26T05:43:33.270Z,7.57
2022-09-26T05:46:05.098Z,8.05
2022-09-26T05:48:39.684Z,7.97
2022-09-26T05:51:13.378Z,7.10
2022-09-26T05:53:46.457Z,7.20
2022-09-26T05:56:19.631Z,7.20
2022-09-26T05:59:04.182Z,7.75
2022-09-26T06:01:50.774Z,7.43
2022-09-26T06:04:33.370Z,7.80
2022-09-26T06:07:30.580Z,7.75
2022-09-26T06:09:58.630Z,7.45
2022-09-26T06:12:42.046Z,8.20
2022-09-26T06:15:11.867Z,8.35
2022-09-26T06:17:40.082Z,8.30
2022-09-26T06:20:09.221Z,8.13
2022-09-26T06:22:41.738Z,7.95
2022-09-26T06:25:10.762Z,8.57
2022-09-26T06:27:39.533Z,7.65
2022-09-26T06:30:10.596Z,8.52
2022-09-26T06:32:40.087Z,7.70
2022-09-26T06:35:34.415Z,7.80
2022-09-26T06:38:05.829Z,8.23
2022-09-26T06:40:34.309Z,8.05
2022-09-26T06:43:02.364Z,7.72
2022-09-26T06:45:50.745Z,7.50
2022-09-26T06:48:43.429Z,7.63
2022-09-26T06:51:21.449Z,7.72
2022-09-26T06:53:49.694Z,7.15
2022-09-26T06:56:21.675Z,7.13
2022-09-26T06:58:50.979Z,7.45
2022-09-26T07:01:22.965Z,7.40
2022-09-26T07:04:11.133Z,7.47
2022-09-26T07:06:45.183Z,6.82
2022-09-26T07:09:14.433Z,6.82
2022-09-26T07:12:14.573Z,6.85
2022-09-26T07:14:44.314Z,6.60
2022-09-26T07:17:21.146Z,7.15
2022-09-26T07:20:15.448Z,6.28
2022-09-26T07:23:03.030Z,6.45
2022-09-26T07:25:32.020Z,6.57
2022-09-26T07:28:02.785Z,6.03
2022-09-26T07:30:51.263Z,6.10
2022-09-26T07:33:45.854Z,5.72
2022-09-26T07:36:15.963Z,5.63
2022-09-26T07:38:44.950Z,5.88
2022-09-26T07:41:13.189Z,5.10
2022-09-26T07:44:19.343Z,5.75
2022-09-26T07:46:47.914Z,5.10
2022-09-26T07:49:33.413Z,4.97
2022-09-26T07:52:17.458Z,4.60
2022-09-26T07:55:05.221Z,4.88
2022-09-26T07:57:53.528Z,5.03
2022-09-26T08:00:36.398Z,4.68
2022-09-26T08:03:18.102Z,4.90
2022-09-26T08:05:46.505Z,5.00
2022-09-26T08:08:15.893Z,4.80
2022-09-26T08:11:04.223Z,4.60
2022-09-26T08:13:58.266Z,4.32
2022-09-26T08:16:47.523Z,4.82
2022-09-26T08:19:17.565Z,4.28
2022-09-26T08:21:46.426Z,4.70
2022-09-26T08:24:16.162Z,4.43
2022-09-26T08:26:57.217Z,4.50
2022-09-26T08:29:32.287Z,4.47
2022-09-26T08:32:03.124Z,4.40
2022-09-26T08:34:35.051Z,4.70
2022-09-26T08:37:21.677Z,4.30
2022-09-26T08:40:11.357Z,4.22
2022-09-26T08:43:26.129Z,4.60
2022-09-26T08:46:42.512Z,4.47
2022-09-26T08:49:50.358Z,3.97
2022-09-26T08:52:29.192Z,4.28
2022-09-26T08:54:59.362Z,4.35
2022-09-26T08:57:39.924Z,4.10
2022-09-26T09:00:19.407Z,4.10
2022-09-26T09:03:06.683Z,4.03
2022-09-26T09:05:39.312Z,3.92
2022-09-26T09:08:13.890Z,3.88
2022-09-26T09:11:01.951Z,4.03
2022-09-26T09:13:52.810Z,4.13
2022-09-26T09:16:38.202Z,4.00
2022-09-26T09:19:35.268Z,4.10
2022-09-26T09:22:46.366Z,4.10
2022-09-26T09:25:23.941Z,4.28
2022-09-26T09:28:12.639Z,4.45
2022-09-26T09:30:46.704Z,4.05
2022-09-26T09:33:33.202Z,4.55
2022-09-26T09:36:22.547Z,3.65
2022-09-26T09:39:09.692Z,3.70
2022-09-26T09:42:01.585Z,3.85
2022-09-26T09:44:43.052Z,4.53
2022-09-26T09:47:17.817Z,3.97
2022-09-26T09:49:49.604Z,4.25
2022-09-26T09:52:43.737Z,3.83
2022-09-26T09:55:20.017Z,3.90
2022-09-26T09:58:16.557Z,3.90
2022-09-26T10:00:51.592Z,3.88
2022-09-26T10:03:38.877Z,3.70
2022-09-26T10:06:46.189Z,3.95
2022-09-26T10:09:36.486Z,4.07
2022-09-26T10:12:56.531Z,4.97
2022-09-26T10:16:41.479Z,4.03
2022-09-26T10:19:49.420Z,4.95
2022-09-26T10:22:34.533Z,4.18
2022-09-26T10:25:08.704Z,4.78
2022-09-26T10:28:07.347Z,4.45
2022-09-26T10:31:15.778Z,3.70
2022-09-26T10:34:20.413Z,4.40
2022-09-26T10:37:48.428Z,4.53
2022-09-26T10:40:53.357Z,4.38
2022-09-26T10:43:41.993Z,4.40
2022-09-26T10:46:20.245Z,4.40
2022-09-26T10:49:07.461Z,4.03
2022-09-26T10:52:01.761Z,4.25
2022-09-26T10:54:41.287Z,4.68
2022-09-26T10:57:20.632Z,4.07
2022-09-26T10:59:50.091Z,4.70
2022-09-26T11:02:24.161Z,4.47
2022-09-26T11:05:15.160Z,4.60
2022-09-26T11:08:08.887Z,4.95
2022-09-26T11:10:48.969Z,4.95
2022-09-26T11:13:32.363Z,4.53
2022-09-26T11:16:10.723Z,5.13
2022-09-26T11:18:51.017Z,4.85
2022-09-26T11:21:29.196Z,4.80
2022-09-26T11:24:11.857Z,5.30
2022-09-26T11:27:09.028Z,4.68
2022-09-26T11:29:45.123Z,4.88
2022-09-26T11:32:41.233Z,5.20
2022-09-26T11:35:55.543Z,5.03
2022-09-26T11:38:39.989Z,5.50
2022-09-26T11:44:55.972Z,4.95
2022-09-26T11:48:10.945Z,5.22
2022-09-26T11:51:47.111Z,4.82
2022-09-26T11:54:38.237Z,5.00
2022-09-26T11:57:34.187Z,4.53
2022-09-26T12:00:09.159Z,5.28
2022-09-26T12:03:36.826Z,4.90
2022-09-26T12:06:18.163Z,4.63
2022-09-26T12:09:15.839Z,5.28
2022-09-26T12:11:53.283Z,5.47
2022-09-26T12:14:44.371Z,5.05
2022-09-26T12:17:19.697Z,5.18
2022-09-26T12:20:00.975Z,4.90
2022-09-26T12:22:36.428Z,5.18
2022-09-26T12:25:46.032Z,5.65
2022-09-26T12:28:42.791Z,4.78
2022-09-26T12:31:18.820Z,5.20
2022-09-26T12:34:16.358Z,6.43
2022-09-26T12:37:01.849Z,5.53
2022-09-26T12:39:56.357Z,6.10
2022-09-26T12:43:14.176Z,5.55
2022-09-26T12:46:21.558Z,5.35
2022-09-26T12:52:47.729Z,5.43
2022-09-26T12:55:39.224Z,5.55
2022-09-26T12:58:24.859Z,5.40
2022-09-26T13:01:00.083Z,5.47
2022-09-26T13:03:50.439Z,4.97
2022-09-26T13:07:07.598Z,5.90
2022-09-26T13:09:52.908Z,5.07
2022-09-26T13:12:40.656Z,5.75
2022-09-26T13:15:22.745Z,5.57
2022-09-26T13:17:57.922Z,5.72
2022-09-26T13:20:32.074Z,6.22
2022-09-26T13:23:06.917Z,6.10
2022-09-26T13:25:49.294Z,5.43
2022-09-26T13:28:21.665Z,5.90
2022-09-26T13:30:55.922Z,5.55
2022-09-26T13:33:30.828Z,5.57
2022-09-26T13:36:03.539Z,5.68
2022-09-26T13:38:48.910Z,5.20
2022-09-26T13:41:32.527Z,5.28
2022-09-26T13:44:09.154Z,4.85
2022-09-26T13:46:56.116Z,4.82
2022-09-26T13:49:35.331Z,4.82
2022-09-26T13:52:19.980Z,4.35
2022-09-26T13:54:58.004Z,4.57
2022-09-26T13:57:40.247Z,4.53
2022-09-26T14:00:49.167Z,4.45
2022-09-26T14:03:49.024Z,3.97
2022-09-26T14:06:28.879Z,4.35
2022-09-26T14:09:27.809Z,4.05
2022-09-26T14:12:21.833Z,4.47
2022-09-26T14:15:15.421Z,3.53
2022-09-26T14:18:12.489Z,3.65
2022-09-26T14:20:57.179Z,4.00
2022-09-26T14:23:41.137Z,4.00
2022-09-26T14:26:14.175Z,3.80
2022-09-26T14:28:50.723Z,3.97
2022-09-26T14:31:38.621Z,3.90
2022-09-26T14:34:16.297Z,3.67
2022-09-26T14:36:47.594Z,4.05
2022-09-26T14:39:31.982Z,3.70
2022-09-26T14:42:09.098Z,3.33
2022-09-26T14:44:37.736Z,3.10
2022-09-26T14:47:16.211Z,3.50
2022-09-26T14:49:53.068Z,3.22
2022-09-26T14:52:25.339Z,3.28
2022-09-26T14:55:01.140Z,3.70
2022-09-26T14:57:31.853Z,3.38
2022-09-26T15:00:00.705Z,3.88
2022-09-26T15:02:36.805Z,3.42
2022-09-26T15:05:13.550Z,3.38
2022-09-26T15:07:47.926Z,2.63
2022-09-26T15:10:22.830Z,2.90
2022-09-26T15:12:58.350Z,2.45
2022-09-26T15:15:36.254Z,2.50
2022-09-26T15:18:09.229Z,3.08
2022-09-26T15:20:41.835Z,2.83
2022-09-26T15:23:23.422Z,2.97
2022-09-26T15:25:54.222Z,2.53
2022-09-26T15:28:24.325Z,2.38
2022-09-26T15:31:25.209Z,2.70
2022-09-26T15:33:58.321Z,2.50
2022-09-26T15:36:29.722Z,2.47
2022-09-26T15:38:59.769Z,2.58
2022-09-26T15:41:45.999Z,2.47
2022-09-26T15:44:21.983Z,4.13
2022-09-26T15:46:50.990Z,2.20
2022-09-26T15:49:28.441Z,2.40
2022-09-26T15:51:57.670Z,2.30
2022-09-26T15:54:31.369Z,2.30
2022-09-26T15:57:04.094Z,2.30
2022-09-26T15:59:40.009Z,2.55
2022-09-26T16:02:23.186Z,2.42
2022-09-26T16:04:54.905Z,2.45
2022-09-26T16:07:26.452Z,2.20
2022-09-26T16:09:57.462Z,2.53
2022-09-26T16:12:29.498Z,2.22
2022-09-26T16:15:03.563Z,2.45
2022-09-26T16:17:35.784Z,2.50
2022-09-26T16:20:22.982Z,2.80
2022-09-26T16:22:52.224Z,2.90
2022-09-26T16:25:31.570Z,3.00
2022-09-26T16:28:02.985Z,3.50
2022-09-26T16:30:42.993Z,2.90
2022-09-26T16:33:27.307Z,3.20
2022-09-26T16:35:55.975Z,3.13
2022-09-26T16:38:28.234Z,3.10
2022-09-26T16:41:03.337Z,3.03
2022-09-26T16:43:33.177Z,3.15
2022-09-26T16:46:06.616Z,3.35
2022-09-26T16:48:41.145Z,3.17
2022-09-26T16:51:15.237Z,3.50
2022-09-26T16:53:45.774Z,3.38
2022-09-26T16:56:16.978Z,4.53
2022-09-26T16:58:50.107Z,3.97
2022-09-26T17:01:36.427Z,3.47
2022-09-26T17:04:04.815Z,3.80
2022-09-26T17:06:35.146Z,3.63
2022-09-26T17:09:13.368Z,3.30
2022-09-26T17:11:43.450Z,3.90
2022-09-26T17:14:16.329Z,3.60
2022-09-26T17:16:46.950Z,4.20
2022-09-26T17:19:17.551Z,3.72
2022-09-26T17:21:46.497Z,3.58
2022-09-26T17:24:16.442Z,4.20
2022-09-26T17:26:53.326Z,3.35
2022-09-26T17:29:27.445Z,4.18
2022-09-26T17:31:57.191Z,3.67
2022-09-26T17:34:28.333Z,4.05
2022-09-26T17:36:58.591Z,4.38
2022-09-26T17:39:27.338Z,4.68
2022-09-26T17:41:57.270Z,4.85
2022-09-26T17:44:25.429Z,4.60
2022-09-26T17:46:56.216Z,4.60
2022-09-26T17:49:27.362Z,5.60
2022-09-26T17:51:57.108Z,5.90
2022-09-26T17:54:30.179Z,4.35
2022-09-26T17:57:01.085Z,5.13
2022-09-26T17:59:29.842Z,5.40
2022-09-26T18:02:01.639Z,5.00
2022-09-26T18:04:31.356Z,5.22
2022-09-26T18:07:04.432Z,5.35
2022-09-26T18:09:35.253Z,5.13
2022-09-26T18:12:05.622Z,5.20
2022-09-26T18:14:35.478Z,5.20
2022-09-26T18:17:04.377Z,6.05
2022-09-26T18:19:35.633Z,5.78
2022-09-26T18:22:07.348Z,5.35
2022-09-26T18:24:35.803Z,4.93
2022-09-26T18:27:07.280Z,5.32
2022-09-26T18:29:38.062Z,5.68
2022-09-26T18:32:11.398Z,6.15
2022-09-26T18:34:45.394Z,5.32
2022-09-26T18:37:13.539Z,5.38
2022-09-26T18:39:41.602Z,5.53
2022-09-26T18:42:20.561Z,5.57
2022-09-26T18:44:50.306Z,5.50
2022-09-26T18:47:18.982Z,5.13
2022-09-26T18:49:48.034Z,5.22
2022-09-26T18:52:18.639Z,5.53
2022-09-26T18:55:07.254Z,6.07
2022-09-26T18:57:56.011Z,5.75
2022-09-26T19:00:25.049Z,5.80
2022-09-26T19:02:54.023Z,5.65
2022-09-26T19:05:22.506Z,5.88
2022-09-26T19:07:50.812Z,6.00
2022-09-26T19:10:23.606Z,6.30
2022-09-26T19:12:53.249Z,6.47
2022-09-26T19:15:21.317Z,6.90
2022-09-26T19:17:50.631Z,7.18
2022-09-26T19:20:18.934Z,6.75
2022-09-26T19:22:47.128Z,6.75
2022-09-26T19:25:15.379Z,6.65
2022-09-26T19:27:49.658Z,6.90
2022-09-26T19:30:24.021Z,6.80
2022-09-26T19:32:57.266Z,6.15
2022-09-26T19:35:30.208Z,6.78
2022-09-26T19:37:58.877Z,7.38
2022-09-26T19:40:28.176Z,7.88
2022-09-26T19:42:57.370Z,7.25
2022-09-26T19:45:32.131Z,7.57
2022-09-26T19:48:00.852Z,8.35
2022-09-26T19:50:30.754Z,6.88
2022-09-26T19:52:59.157Z,6.32
2022-09-26T19:55:29.025Z,6.32
2022-09-26T19:58:01.569Z,6.55
2022-09-26T20:00:36.971Z,6.65
2022-09-26T20:03:05.318Z,6.40
2022-09-26T20:05:33.395Z,7.13
2022-09-26T20:08:02.327Z,7.32
2022-09-26T20:10:30.451Z,7.55
2022-09-26T20:12:58.519Z,7.05
2022-09-26T20:15:26.566Z,7.53
2022-09-26T20:17:58.410Z,7.85
2022-09-26T20:20:27.342Z,7.57
2022-09-26T20:22:56.543Z,8.23
2022-09-26T20:25:27.435Z,8.25
2022-09-26T20:27:56.102Z,8.75
2022-09-26T20:30:42.048Z,8.70
2022-09-26T20:33:13.271Z,7.85
2022-09-26T20:35:44.630Z,7.60
2022-09-26T20:38:16.491Z,8.02
2022-09-26T20:40:46.308Z,7.70
2022-09-26T20:43:20.774Z,8.45
2022-09-26T20:45:49.355Z,8.45
2022-09-26T20:48:22.033Z,8.57
2022-09-26T20:50:50.577Z,8.77
2022-09-26T20:53:19.754Z,8.82
2022-09-26T20:55:47.960Z,9.02
2022-09-26T20:58:16.219Z,8.82
2022-09-26T21:00:45.139Z,8.90
2022-09-26T21:03:15.655Z,7.72
2022-09-26T21:05:45.711Z,8.55
2022-09-26T21:08:24.299Z,6.85
2022-09-26T21:10:52.365Z,7.30
2022-09-26T21:13:20.388Z,6.97
2022-09-26T21:15:48.565Z,6.65
2022-09-26T21:18:24.988Z,6.35
2022-09-26T21:20:55.143Z,5.90
2022-09-26T21:23:44.072Z,5.18
2022-09-26T21:26:18.590Z,4.47
2022-09-26T21:28:46.954Z,4.75
2022-09-26T21:31:21.840Z,3.05
2022-09-26T21:33:50.600Z,2.22
2022-09-26T21:36:21.119Z,2.03
2022-09-26T21:38:51.848Z,1.98
2022-09-26T21:41:20.282Z,2.40
2022-09-26T21:43:52.119Z,2.38
2022-09-26T21:46:20.795Z,1.90
2022-09-26T21:48:50.093Z,1.83
2022-09-26T21:51:21.381Z,2.40
2022-09-26T21:53:53.628Z,2.42
2022-09-26T21:56:25.750Z,2.08
2022-09-26T21:58:54.051Z,2.45
2022-09-26T22:01:22.747Z,1.73
2022-09-26T22:03:50.903Z,2.20
2022-09-26T22:06:20.294Z,1.77
2022-09-26T22:08:48.354Z,2.05
2022-09-26T22:11:16.376Z,1.90
2022-09-26T22:13:44.527Z,2.30
2022-09-26T22:16:14.280Z,2.10
2022-09-26T22:18:42.571Z,2.03
2022-09-26T22:21:12.684Z,1.85
2022-09-26T22:23:42.215Z,2.10
2022-09-26T22:26:10.361Z,2.00
2022-09-26T22:28:38.369Z,2.33
2022-09-26T22:31:06.817Z,2.50
2022-09-26T22:33:35.126Z,2.58
2022-09-26T22:36:03.998Z,2.78
2022-09-26T22:38:33.725Z,2.80
2022-09-26T22:41:04.829Z,2.50
2022-09-26T22:43:34.300Z,2.80
2022-09-26T22:46:03.247Z,2.67
2022-09-26T22:48:33.065Z,2.40
2022-09-26T22:51:01.493Z,2.97
2022-09-26T22:53:31.167Z,2.40
2022-09-26T22:56:05.003Z,2.60
2022-09-26T22:58:37.661Z,2.95
2022-09-26T23:01:07.933Z,2.55
2022-09-26T23:03:36.341Z,2.40
2022-09-26T23:06:05.374Z,2.10
2022-09-26T23:08:34.075Z,2.35
2022-09-26T23:11:03.254Z,2.40
2022-09-26T23:13:32.895Z,2.08
2022-09-26T23:16:06.783Z,2.45
2022-09-26T23:18:35.612Z,2.00
2022-09-26T23:21:08.891Z,1.80
2022-09-26T23:23:37.041Z,2.30
2022-09-26T23:26:06.560Z,2.65
2022-09-26T23:28:35.000Z,2.20
2022-09-26T23:31:08.967Z,2.33
2022-09-26T23:33:37.492Z,2.60
2022-09-26T23:36:06.154Z,2.35
2022-09-26T23:38:34.990Z,1.98
2022-09-26T23:41:03.246Z,1.98
2022-09-26T23:43:31.340Z,2.13
2022-09-26T23:45:59.500Z,2.28
2022-09-26T23:48:29.352Z,1.50
2022-09-26T23:50:57.699Z,1.65
2022-09-26T23:53:26.040Z,1.25
2022-09-26T23:55:54.471Z,1.50
2022-09-26T23:58:22.590Z,1.40
